Time;durP1;ratioP1;P1;durP2;ratioP2;P2;SDS_P1;SDS_P2;PMS_P1;PMS_P2;Temp;Humidity;BMP_temperature;BMP_pressure;BME280_temperature;BME280_humidity;BME280_pressure;Samples;Min_cycle;Max_cycle;Signal;HPM_P1;HPM_P2
2023/12/05 00:01:32;;;;;;;15.23;8.50;;;;;;;2.39;67.05;95378.34;5067984;28;20028;-77
2023/12/05 00:03:58;;;;;;;15.43;8.85;;;;;;;2.40;66.96;95377.94;5067702;28;20058;-79
2023/12/05 00:06:23;;;;;;;17.15;9.48;;;;;;;2.36;67.18;95376.38;5066803;28;20122;-78
2023/12/05 00:08:49;;;;;;;13.38;8.98;;;;;;;2.40;67.25;95380.66;5066147;28;20070;-78
2023/12/05 00:11:14;;;;;;;14.07;8.23;;;;;;;2.32;67.30;95386.41;5067003;28;20150;-78
2023/12/05 00:13:40;;;;;;;13.63;8.40;;;;;;;2.35;67.60;95388.38;5065986;28;20024;-77
2023/12/05 00:16:07;;;;;;;16.08;9.75;;;;;;;2.38;67.32;95379.50;5065735;28;20032;-79
2023/12/05 00:18:32;;;;;;;16.50;8.93;;;;;;;2.45;67.41;95382.25;5065689;28;20087;-78
2023/12/05 00:20:58;;;;;;;15.75;9.07;;;;;;;2.54;66.93;95390.13;5067756;28;20483;-79
2023/12/05 00:23:23;;;;;;;14.40;8.68;;;;;;;2.51;67.10;95393.56;5048280;28;20051;-78
2023/12/05 00:25:48;;;;;;;14.45;8.13;;;;;;;2.47;67.28;95387.34;5067683;28;20051;-78
2023/12/05 00:28:14;;;;;;;16.17;8.85;;;;;;;2.48;67.14;95389.66;5066675;28;20078;-77
2023/12/05 00:30:39;;;;;;;14.18;9.07;;;;;;;2.45;67.30;95390.41;5066468;28;20409;-77
2023/12/05 00:33:05;;;;;;;13.88;8.60;;;;;;;2.56;66.86;95390.50;5067204;28;20033;-78
2023/12/05 00:35:30;;;;;;;10.65;7.53;;;;;;;2.64;66.75;95392.94;5048553;28;20024;-78
2023/12/05 00:37:55;;;;;;;14.07;8.40;;;;;;;2.67;66.59;95380.53;5067154;28;20074;-78
2023/12/05 00:40:21;;;;;;;12.80;7.93;;;;;;;2.72;66.49;95382.91;5048320;28;20024;-78
2023/12/05 00:42:46;;;;;;;12.00;7.95;;;;;;;2.81;66.23;95386.09;5066056;28;20040;-79
2023/12/05 00:45:13;;;;;;;13.07;6.90;;;;;;;2.84;65.86;95392.69;5065103;28;20336;-78
2023/12/05 00:47:39;;;;;;;9.02;6.47;;;;;;;2.80;65.65;95395.38;5065685;28;20411;-77
2023/12/05 00:50:05;;;;;;;9.20;6.43;;;;;;;2.79;65.64;95393.81;5065025;28;20040;-77
2023/12/05 00:52:30;;;;;;;8.50;5.78;;;;;;;2.78;65.54;95386.06;5065112;28;20120;-77
2023/12/05 00:54:56;;;;;;;9.68;6.35;;;;;;;2.74;65.60;95390.66;5064992;28;20428;-78
2023/12/05 00:57:21;;;;;;;8.32;6.13;;;;;;;2.71;65.92;95389.50;5066088;28;20471;-78
2023/12/05 00:59:46;;;;;;;10.07;6.13;;;;;;;2.65;65.40;95391.00;5065486;28;20040;-78
2023/12/05 01:02:12;;;;;;;12.48;6.22;;;;;;;2.54;65.69;95381.97;5065819;28;20720;-79
2023/12/05 01:04:37;;;;;;;8.18;5.40;;;;;;;2.61;65.11;95380.09;5066804;28;20459;-78
2023/12/05 01:07:04;;;;;;;9.35;6.57;;;;;;;2.49;65.45;95377.66;5065693;28;20059;-78
2023/12/05 01:09:29;;;;;;;10.98;6.53;;;;;;;2.40;65.74;95369.81;5066017;28;20085;-77
2023/12/05 01:11:55;;;;;;;9.18;6.10;;;;;;;2.42;65.69;95365.97;5066005;28;20020;-77
2023/12/05 01:14:20;;;;;;;9.65;5.60;;;;;;;2.36;65.31;95357.38;5065688;28;20111;-77
2023/12/05 01:16:45;;;;;;;9.55;6.10;;;;;;;2.44;65.09;95366.38;5066029;28;20033;-78
2023/12/05 01:19:11;;;;;;;8.60;6.05;;;;;;;2.37;64.54;95357.00;5064759;28;20032;-79
2023/12/05 01:21:36;;;;;;;8.40;5.65;;;;;;;2.34;64.57;95359.66;5064906;28;20086;-78
2023/12/05 01:24:02;;;;;;;7.88;5.53;;;;;;;2.34;63.99;95348.81;5065732;28;20031;-78
2023/12/05 01:26:27;;;;;;;6.80;3.95;;;;;;;2.25;63.88;95348.38;5065719;28;20043;-79
2023/12/05 01:28:54;;;;;;;7.22;5.93;;;;;;;2.24;64.08;95349.53;5063943;28;20432;-78
2023/12/05 01:31:20;;;;;;;10.85;6.10;;;;;;;2.32;63.90;95345.72;5065461;28;20530;-78
2023/12/05 01:33:46;;;;;;;10.15;6.15;;;;;;;2.32;63.48;95349.19;5064253;28;20119;-79
2023/12/05 01:36:12;;;;;;;9.77;5.55;;;;;;;2.43;62.68;95343.88;5065147;28;20108;-77
2023/12/05 01:38:37;;;;;;;10.30;5.70;;;;;;;2.50;62.23;95345.88;5066262;28;20113;-77
2023/12/05 01:41:03;;;;;;;7.72;5.28;;;;;;;2.50;61.50;95343.16;5064023;28;20054;-79
2023/12/05 01:43:28;;;;;;;8.25;5.20;;;;;;;2.31;61.23;95325.94;5066232;28;20021;-79
2023/12/05 01:45:55;;;;;;;9.10;5.10;;;;;;;2.42;61.13;95336.13;5065341;28;20046;-77
2023/12/05 01:48:20;;;;;;;7.78;5.15;;;;;;;2.38;61.43;95331.44;5047390;28;20127;-77
2023/12/05 01:50:46;;;;;;;7.53;5.57;;;;;;;2.37;61.46;95326.38;5064285;28;20029;-78
2023/12/05 01:53:11;;;;;;;7.80;4.68;;;;;;;2.47;60.74;95333.06;5063869;28;20466;-79
2023/12/05 01:55:37;;;;;;;7.40;5.10;;;;;;;2.49;60.58;95336.94;5064169;28;20031;-78
2023/12/05 01:58:04;;;;;;;8.23;5.10;;;;;;;2.41;60.51;95329.91;5063712;28;20032;-78
2023/12/05 02:00:30;;;;;;;6.70;4.10;;;;;;;2.34;60.44;95314.31;5047627;28;20442;-78
2023/12/05 02:02:56;;;;;;;7.10;4.90;;;;;;;2.36;60.61;95328.31;5063791;28;20064;-78
2023/12/05 02:05:22;;;;;;;7.72;4.50;;;;;;;2.28;60.64;95317.75;5065471;28;20037;-77
2023/12/05 02:07:48;;;;;;;7.72;5.15;;;;;;;2.31;61.07;95331.38;5065291;28;20380;-77
2023/12/05 02:10:13;;;;;;;7.45;5.32;;;;;;;2.42;60.57;95327.97;5064171;28;20104;-78
2023/12/05 02:12:39;;;;;;;8.57;5.70;;;;;;;2.34;60.52;95313.56;5064010;28;20511;-76
2023/12/05 02:15:05;;;;;;;7.78;5.50;;;;;;;2.38;60.73;95327.94;5043629;28;20033;-78
2023/12/05 02:17:52;;;;;;;10.70;5.30;;;;;;;2.37;60.36;95310.09;5027199;28;20388;-78
2023/12/05 02:20:41;;;;;;;6.88;4.65;;;;;;;2.31;60.70;95300.75;5044764;28;20684;-77
2023/12/05 02:23:15;;;;;;;8.20;5.65;;;;;;;2.21;60.95;95315.78;5043645;28;20029;-78
2023/12/05 02:26:10;;;;;;;9.50;5.13;;;;;;;2.17;60.80;95293.25;5045036;28;20052;-78
2023/12/05 02:28:37;;;;;;;5.38;3.33;;;;;;;2.10;61.18;95291.25;5024898;28;20092;-78
2023/12/05 02:31:02;;;;;;;7.35;5.15;;;;;;;1.99;61.60;95278.75;5045653;28;20051;-78
2023/12/05 02:33:27;;;;;;;9.75;5.82;;;;;;;1.92;61.92;95274.03;5059118;28;20040;-77
2023/12/05 02:36:34;;;;;;;10.63;5.90;;;;;;;1.88;62.27;95275.94;5078296;28;20095;-76
2023/12/05 02:39:21;;;;;;;8.40;5.55;;;;;;;1.78;62.71;95276.63;5057529;28;20090;-77
2023/12/05 02:41:52;;;;;;;8.80;6.05;;;;;;;1.81;62.73;95275.88;5067355;28;20041;-78
2023/12/05 02:44:18;;;;;;;8.13;4.88;;;;;;;1.92;62.12;95263.19;5069061;28;20039;-77
2023/12/05 02:46:44;;;;;;;7.53;6.03;;;;;;;1.94;62.00;95266.31;5068497;28;20031;-78
2023/12/05 02:49:10;;;;;;;7.68;5.38;;;;;;;2.00;61.94;95264.81;5067808;28;20036;-76
2023/12/05 02:51:35;;;;;;;9.38;5.18;;;;;;;2.02;61.78;95261.75;5068409;28;20479;-77
2023/12/05 02:54:03;;;;;;;9.25;5.72;;;;;;;2.04;61.94;95262.13;5068493;28;20020;-77
2023/12/05 02:56:29;;;;;;;8.73;5.18;;;;;;;2.07;61.69;95253.28;5068645;28;20052;-78
2023/12/05 02:58:54;;;;;;;9.63;5.55;;;;;;;2.11;61.27;95260.25;5068497;28;20059;-78
2023/12/05 03:01:20;;;;;;;8.77;5.47;;;;;;;2.13;61.15;95268.81;5068912;28;20028;-79
2023/12/05 03:03:45;;;;;;;9.32;5.88;;;;;;;2.17;61.13;95260.69;5066784;28;20024;-78
2023/12/05 03:06:10;;;;;;;8.13;4.97;;;;;;;2.24;60.80;95266.19;5068490;28;20434;-78
2023/12/05 03:08:36;;;;;;;6.82;4.88;;;;;;;2.30;60.42;95266.63;5068100;28;20028;-76
2023/12/05 03:11:01;;;;;;;6.90;5.30;;;;;;;2.24;60.31;95263.50;5068269;28;20028;-78
2023/12/05 03:13:27;;;;;;;8.68;5.22;;;;;;;2.16;60.78;95256.44;5068405;28;20436;-78
2023/12/05 03:15:53;;;;;;;8.85;5.50;;;;;;;2.08;60.91;95252.88;5067964;28;20028;-77
2023/12/05 03:18:18;;;;;;;7.63;5.57;;;;;;;2.27;60.66;95264.66;5068526;28;20463;-78
2023/12/05 03:20:43;;;;;;;9.63;5.60;;;;;;;2.33;60.40;95261.22;5068966;28;20048;-78
2023/12/05 03:23:09;;;;;;;6.55;4.57;;;;;;;2.35;60.21;95275.22;5068415;28;20422;-77
2023/12/05 03:25:34;;;;;;;10.50;6.10;;;;;;;2.35;60.19;95275.22;5066004;28;20032;-78
2023/12/05 03:28:00;;;;;;;8.25;5.45;;;;;;;2.37;60.51;95272.13;5068276;28;20032;-77
2023/12/05 03:30:25;;;;;;;8.20;5.55;;;;;;;2.38;60.60;95268.25;5068013;28;20403;-78
2023/12/05 03:32:50;;;;;;;8.32;5.70;;;;;;;2.42;60.41;95268.28;5067758;28;20498;-78
2023/12/05 03:35:16;;;;;;;9.07;5.18;;;;;;;2.46;59.90;95250.06;5066439;28;20070;-78
2023/12/05 03:37:41;;;;;;;7.95;5.13;;;;;;;2.49;60.01;95252.81;5066042;28;20024;-78
2023/12/05 03:40:07;;;;;;;9.38;5.43;;;;;;;2.49;59.84;95249.31;5068185;28;20059;-77
2023/12/05 03:42:33;;;;;;;8.80;5.22;;;;;;;2.52;59.91;95265.63;5066561;28;20111;-77
2023/12/05 03:44:58;;;;;;;7.97;5.45;;;;;;;2.61;59.30;95271.50;5049844;28;20420;-77
2023/12/05 03:47:26;;;;;;;8.35;5.15;;;;;;;2.64;58.63;95262.63;5067450;28;20039;-77
2023/12/05 03:49:51;;;;;;;7.30;5.03;;;;;;;2.69;58.28;95263.41;5067727;28;20028;-79
2023/12/05 03:52:17;;;;;;;8.18;4.43;;;;;;;2.71;57.82;95270.03;5066207;28;20035;-80
2023/12/05 03:54:42;;;;;;;6.65;4.55;;;;;;;2.60;58.05;95266.47;5065932;28;20055;-76
2023/12/05 03:57:07;;;;;;;6.18;4.35;;;;;;;2.53;58.36;95264.50;5066316;28;20506;-78
2023/12/05 03:59:33;;;;;;;10.27;4.95;;;;;;;2.54;58.47;95259.84;5066964;28;20024;-79
2023/12/05 04:01:58;;;;;;;7.88;4.80;;;;;;;2.64;58.31;95256.44;5068250;28;20139;-78
2023/12/05 04:04:23;;;;;;;6.38;4.50;;;;;;;2.59;58.41;95248.63;5067063;28;20066;-78
2023/12/05 04:06:49;;;;;;;8.88;4.95;;;;;;;2.59;58.56;95238.56;5067746;28;20101;-78
2023/12/05 04:09:14;;;;;;;8.80;5.57;;;;;;;2.63;58.46;95243.97;5067469;28;20036;-78
2023/12/05 04:11:41;;;;;;;6.47;4.78;;;;;;;2.62;58.34;95245.16;5066826;28;20033;-79
2023/12/05 04:14:06;;;;;;;7.07;4.78;;;;;;;2.55;58.40;95247.81;5066220;28;20025;-78
2023/12/05 04:16:32;;;;;;;7.55;4.78;;;;;;;2.48;58.73;95242.34;5065241;28;20036;-79
2023/12/05 04:18:57;;;;;;;9.90;5.20;;;;;;;2.49;58.63;95252.03;5067732;28;20032;-78
2023/12/05 04:21:25;;;;;;;8.80;5.35;;;;;;;2.50;58.91;95245.47;5066558;28;20051;-77
2023/12/05 04:23:51;;;;;;;8.27;5.82;;;;;;;2.53;58.95;95253.63;5065764;28;20063;-77
2023/12/05 04:26:18;;;;;;;9.98;5.28;;;;;;;2.61;58.76;95244.38;5048777;28;20449;-78
2023/12/05 04:28:44;;;;;;;7.15;5.22;;;;;;;2.71;58.34;95244.81;5065351;28;20020;-77
2023/12/05 04:31:10;;;;;;;7.85;5.22;;;;;;;2.70;58.14;95232.41;5065581;28;20485;-79
2023/12/05 04:33:35;;;;;;;8.88;5.07;;;;;;;2.70;58.16;95233.19;5066123;28;20044;-78
2023/12/05 04:36:00;;;;;;;7.82;5.22;;;;;;;2.65;58.04;95237.03;5066984;28;20025;-77
2023/12/05 04:38:26;;;;;;;9.05;5.53;;;;;;;2.66;58.21;95230.44;5066295;28;20024;-77
2023/12/05 04:40:51;;;;;;;7.68;5.53;;;;;;;2.71;58.25;95240.16;5067002;28;20036;-78
2023/12/05 04:43:17;;;;;;;7.90;5.35;;;;;;;2.72;58.31;95236.28;5051066;28;20028;-79
2023/12/05 04:45:43;;;;;;;7.95;5.63;;;;;;;2.69;58.38;95238.97;5073005;28;20349;-80
2023/12/05 04:48:08;;;;;;;8.48;6.07;;;;;;;2.62;58.54;95242.44;5071635;28;20083;-78
2023/12/05 04:50:34;;;;;;;8.05;5.43;;;;;;;2.53;58.98;95242.78;5068618;28;20633;-79
2023/12/05 04:52:59;;;;;;;7.25;5.35;;;;;;;2.58;59.15;95250.56;5067662;28;20479;-79
2023/12/05 04:55:25;;;;;;;7.80;5.47;;;;;;;2.61;59.09;95251.75;5066584;28;20028;-78
2023/12/05 04:57:50;;;;;;;7.90;5.68;;;;;;;2.61;58.94;95257.16;5065727;28;20477;-78
2023/12/05 05:00:16;;;;;;;11.88;5.85;;;;;;;2.67;58.95;95256.44;5066291;28;20081;-77
2023/12/05 05:02:41;;;;;;;8.15;5.80;;;;;;;2.72;58.84;95241.72;5066489;28;20032;-77
2023/12/05 05:05:07;;;;;;;7.55;5.78;;;;;;;2.74;58.75;95250.25;5066469;28;20030;-79
2023/12/05 05:07:33;;;;;;;11.15;6.78;;;;;;;2.75;58.84;95257.25;5065904;28;20032;-78
2023/12/05 05:09:58;;;;;;;12.32;6.13;;;;;;;2.79;58.90;95260.00;5066438;28;20113;-78
2023/12/05 05:12:24;;;;;;;10.63;7.28;;;;;;;2.82;58.85;95260.03;5065988;28;20082;-78
2023/12/05 05:14:49;;;;;;;11.10;6.88;;;;;;;2.83;58.91;95253.44;5066894;28;20028;-78
2023/12/05 05:17:14;;;;;;;9.68;6.93;;;;;;;2.84;58.79;95265.06;5065969;28;20037;-78
2023/12/05 05:19:40;;;;;;;11.18;7.28;;;;;;;2.87;58.64;95262.38;5066423;28;20028;-77
2023/12/05 05:22:05;;;;;;;9.80;7.15;;;;;;;2.97;58.90;95276.38;5064361;28;20414;-78
2023/12/05 05:24:32;;;;;;;12.02;8.18;;;;;;;3.02;58.24;95254.31;5066209;28;20028;-78
2023/12/05 05:26:58;;;;;;;10.45;7.45;;;;;;;3.01;58.10;95256.25;5064856;28;20021;-78
2023/12/05 05:29:23;;;;;;;10.70;7.68;;;;;;;2.99;58.20;95253.13;5065235;28;20103;-79
2023/12/05 05:31:48;;;;;;;9.85;7.50;;;;;;;2.97;58.36;95238.38;5066172;28;20112;-79
2023/12/05 05:34:14;;;;;;;11.18;7.07;;;;;;;2.97;58.46;95255.44;5065883;28;20552;-78
2023/12/05 05:36:39;;;;;;;11.02;6.78;;;;;;;2.99;58.60;95247.72;5064288;28;20042;-78
2023/12/05 05:39:04;;;;;;;8.98;5.82;;;;;;;2.97;58.55;95257.38;5065616;28;20526;-79
2023/12/05 05:41:30;;;;;;;12.40;7.60;;;;;;;2.98;58.46;95245.34;5066269;28;20060;-77
2023/12/05 05:43:55;;;;;;;11.85;6.70;;;;;;;3.05;58.51;95245.41;5065725;28;20082;-80
2023/12/05 05:46:21;;;;;;;11.07;6.63;;;;;;;3.05;58.54;95237.25;5063815;28;20108;-78
2023/12/05 05:48:46;;;;;;;10.65;6.82;;;;;;;3.05;58.39;95240.75;5064752;28;20028;-79
2023/12/05 05:51:11;;;;;;;8.95;6.65;;;;;;;3.06;58.28;95236.09;5065312;28;20107;-79
2023/12/05 05:53:37;;;;;;;10.02;6.40;;;;;;;3.06;58.54;95236.09;5064421;28;20221;-79
2023/12/05 05:56:02;;;;;;;10.13;6.53;;;;;;;3.06;58.34;95230.66;5065182;28;20029;-79
2023/12/05 05:58:28;;;;;;;11.52;6.85;;;;;;;3.15;57.69;95236.50;5064430;28;20071;-77
2023/12/05 06:00:54;;;;;;;8.77;6.75;;;;;;;3.10;57.95;95239.63;5063978;28;20468;-79
2023/12/05 06:03:19;;;;;;;13.07;6.93;;;;;;;3.12;57.44;95229.91;5064438;28;20491;-78
2023/12/05 06:05:44;;;;;;;10.02;6.45;;;;;;;3.10;58.04;95226.03;5066223;28;20028;-79
2023/12/05 06:08:10;;;;;;;11.20;6.32;;;;;;;3.12;58.00;95226.41;5068046;28;20526;-80
2023/12/05 06:10:36;;;;;;;9.70;6.70;;;;;;;3.08;58.20;95209.31;5068474;28;20037;-80
2023/12/05 06:13:01;;;;;;;12.13;6.70;;;;;;;3.11;58.19;95214.78;5067902;28;20113;-78
2023/12/05 06:15:27;;;;;;;9.27;6.38;;;;;;;3.14;58.22;95214.00;5069652;28;20107;-79
2023/12/05 06:17:52;;;;;;;13.98;7.57;;;;;;;3.15;58.14;95198.47;5069428;28;20456;-79
2023/12/05 06:20:18;;;;;;;11.60;7.68;;;;;;;3.14;57.98;95222.16;5069993;28;20032;-78
2023/12/05 06:22:43;;;;;;;12.98;7.63;;;;;;;3.17;58.01;95217.91;5069061;28;20039;-78
2023/12/05 06:25:08;;;;;;;13.85;7.25;;;;;;;3.12;57.96;95216.31;5069231;28;20112;-80
2023/12/05 06:27:34;;;;;;;15.15;8.98;;;;;;;3.14;58.03;95230.31;5067752;28;20471;-78
2023/12/05 06:29:59;;;;;;;14.93;9.23;;;;;;;3.14;58.17;95229.53;5067585;28;20052;-77
2023/12/05 06:32:24;;;;;;;13.82;9.55;;;;;;;3.19;58.10;95221.00;5069565;28;20021;-78
2023/12/05 06:34:50;;;;;;;15.05;9.57;;;;;;;3.24;57.93;95233.44;5068852;28;20153;-79
2023/12/05 06:37:16;;;;;;;13.35;9.05;;;;;;;3.26;57.79;95223.75;5069391;28;20055;-78
2023/12/05 06:39:41;;;;;;;11.70;8.90;;;;;;;3.23;58.14;95202.78;5068845;28;20445;-78
2023/12/05 06:42:06;;;;;;;14.57;8.38;;;;;;;3.25;57.81;95196.97;5051178;28;20020;-78
2023/12/05 06:44:32;;;;;;;14.50;8.60;;;;;;;3.23;57.74;95204.72;5069013;28;20051;-78
2023/12/05 06:46:57;;;;;;;14.13;8.88;;;;;;;3.28;57.96;95220.66;5068212;28;20085;-78
2023/12/05 06:49:23;;;;;;;15.70;9.93;;;;;;;3.20;57.88;95215.19;5069040;28;20028;-78
2023/12/05 06:51:55;;;;;;;14.80;10.50;;;;;;;3.19;58.03;95207.44;5068782;28;20043;-76
2023/12/05 06:54:21;;;;;;;17.10;11.23;;;;;;;3.26;57.89;95209.38;5069024;28;20029;-77
2023/12/05 06:56:47;;;;;;;19.58;11.93;;;;;;;3.27;57.86;95198.16;5067986;28;20021;-76
2023/12/05 06:59:13;;;;;;;22.50;13.80;;;;;;;3.22;58.31;95203.19;5067491;28;20098;-79
2023/12/05 07:01:39;;;;;;;23.90;13.20;;;;;;;3.28;58.13;95199.72;5066796;28;20067;-77
2023/12/05 07:04:04;;;;;;;26.73;14.30;;;;;;;3.25;58.12;95178.72;5067212;28;20044;-76
2023/12/05 07:06:31;;;;;;;30.60;18.08;;;;;;;3.36;57.77;95184.97;5068462;28;20425;-79
2023/12/05 07:08:57;;;;;;;27.80;16.55;;;;;;;3.38;57.92;95177.22;5068249;28;20075;-77
2023/12/05 07:11:25;;;;;;;21.38;13.80;;;;;;;3.47;57.67;95165.97;5067253;28;20429;-79
2023/12/05 07:13:51;;;;;;;19.83;11.73;;;;;;;3.50;57.71;95167.13;5067892;28;20142;-76
2023/12/05 07:16:17;;;;;;;25.25;12.48;;;;;;;3.51;57.34;95169.47;5067142;28;20036;-79
2023/12/05 07:18:42;;;;;;;21.90;12.80;;;;;;;3.55;57.54;95181.13;5067993;28;20048;-76
2023/12/05 07:21:08;;;;;;;14.93;10.32;;;;;;;3.62;57.19;95180.38;5068352;28;20036;-78
2023/12/05 07:23:34;;;;;;;16.20;10.25;;;;;;;3.61;57.04;95162.50;5066373;28;20471;-79
2023/12/05 07:26:00;;;;;;;18.65;12.35;;;;;;;3.65;56.98;95185.81;5067762;28;20028;-78
2023/12/05 07:28:25;;;;;;;15.68;10.57;;;;;;;3.69;56.88;95177.66;5068380;28;20028;-78
2023/12/05 07:30:51;;;;;;;18.33;11.48;;;;;;;3.70;57.16;95169.13;5067547;28;20024;-77
2023/12/05 07:33:16;;;;;;;16.52;11.15;;;;;;;3.78;56.79;95174.56;5068297;28;20097;-78
2023/12/05 07:35:42;;;;;;;14.07;9.73;;;;;;;3.89;56.57;95162.53;5067368;28;20490;-76
2023/12/05 07:38:07;;;;;;;19.02;10.82;;;;;;;3.97;56.34;95180.41;5070030;28;20473;-79
2023/12/05 07:40:32;;;;;;;17.17;11.18;;;;;;;3.96;56.29;95167.22;5073448;28;20459;-77
2023/12/05 07:42:58;;;;;;;18.33;12.38;;;;;;;4.04;56.26;95168.75;5067705;28;20024;-77
2023/12/05 07:45:23;;;;;;;23.13;13.13;;;;;;;4.09;56.03;95178.47;5071795;28;20032;-78
2023/12/05 07:47:49;;;;;;;17.05;11.82;;;;;;;4.17;56.08;95186.22;5067883;28;20120;-79
2023/12/05 07:50:14;;;;;;;23.02;12.80;;;;;;;4.19;56.00;95181.19;5082169;28;20090;-79
2023/12/05 07:52:40;;;;;;;22.58;12.43;;;;;;;4.32;55.80;95194.41;5085634;28;20030;-78
2023/12/05 07:55:05;;;;;;;20.77;12.85;;;;;;;4.32;55.58;95180.78;5081645;28;20100;-77
2023/12/05 07:57:31;;;;;;;23.58;12.30;;;;;;;4.36;55.35;95179.63;5077570;28;20039;-74
2023/12/05 07:59:57;;;;;;;20.83;12.55;;;;;;;4.46;55.25;95191.66;5067400;28;20028;-77
2023/12/05 08:02:22;;;;;;;17.75;12.52;;;;;;;4.40;55.62;95185.06;5069902;28;20032;-77
2023/12/05 08:04:48;;;;;;;19.42;11.95;;;;;;;4.46;55.34;95197.88;5080076;28;20059;-77
2023/12/05 08:07:13;;;;;;;20.05;12.32;;;;;;;4.48;55.10;95192.06;5080579;28;20032;-77
2023/12/05 08:09:39;;;;;;;22.23;13.05;;;;;;;4.50;55.21;95203.31;5075151;28;20033;-76
2023/12/05 08:12:05;;;;;;;23.00;12.93;;;;;;;4.53;55.22;95214.22;5078544;28;20040;-76
2023/12/05 08:14:30;;;;;;;19.67;12.02;;;;;;;4.61;55.25;95214.97;5066803;28;20036;-76
2023/12/05 08:16:55;;;;;;;20.75;12.85;;;;;;;4.66;54.89;95202.91;5067127;28;20419;-76
2023/12/05 08:19:21;;;;;;;20.58;12.73;;;;;;;4.63;54.57;95190.84;5076733;28;20021;-76
2023/12/05 08:21:46;;;;;;;16.17;11.48;;;;;;;4.61;54.76;95187.75;5066628;28;20024;-77
2023/12/05 08:24:12;;;;;;;21.52;12.55;;;;;;;4.64;54.71;95181.50;5067113;28;20029;-78
2023/12/05 08:26:37;;;;;;;21.50;14.15;;;;;;;4.70;54.61;95185.41;5076884;28;20028;-76
2023/12/05 08:29:02;;;;;;;22.83;14.27;;;;;;;4.73;54.84;95181.13;5067049;28;20036;-76
2023/12/05 08:31:28;;;;;;;18.45;12.20;;;;;;;4.77;54.76;95185.38;5071651;28;20078;-76
2023/12/05 08:33:53;;;;;;;20.63;13.27;;;;;;;4.73;54.68;95170.22;5065611;28;20415;-76
2023/12/05 08:36:19;;;;;;;19.20;12.77;;;;;;;4.89;54.81;95184.19;5067521;28;20064;-77
2023/12/05 08:38:44;;;;;;;22.00;13.35;;;;;;;4.96;54.59;95184.16;5066607;28;20105;-76
2023/12/05 08:41:16;;;;;;;24.10;15.52;;;;;;;5.02;54.47;95187.25;5067104;28;20032;-76
2023/12/05 08:43:42;;;;;;;24.30;14.02;;;;;;;5.09;54.43;95178.28;5073535;28;20426;-76
2023/12/05 08:46:07;;;;;;;18.77;12.35;;;;;;;5.18;54.14;95182.13;5070989;28;20068;-77
2023/12/05 08:48:32;;;;;;;19.88;10.63;;;;;;;5.17;54.17;95179.81;5066981;28;20032;-76
2023/12/05 08:50:58;;;;;;;17.65;12.63;;;;;;;5.25;54.14;95175.88;5085886;28;20111;-76
2023/12/05 08:53:23;;;;;;;23.30;11.90;;;;;;;5.41;53.76;95169.97;5085091;28;20445;-77
2023/12/05 08:55:49;;;;;;;18.00;12.70;;;;;;;5.52;53.63;95166.00;5085187;28;20063;-77
2023/12/05 08:58:14;;;;;;;18.88;11.57;;;;;;;5.57;53.47;95164.81;5086339;28;20115;-77
2023/12/05 09:00:39;;;;;;;21.65;12.00;;;;;;;5.45;53.23;95133.31;5071514;28;20522;-77
2023/12/05 09:03:05;;;;;;;27.58;13.40;;;;;;;5.78;52.95;95159.19;5066504;28;20108;-77
2023/12/05 09:05:30;;;;;;;21.20;13.02;;;;;;;5.93;53.20;95159.91;5065462;28;20018;-77
2023/12/05 09:07:56;;;;;;;15.95;11.73;;;;;;;6.33;52.09;95161.16;5066799;28;20038;-78
2023/12/05 09:10:22;;;;;;;22.15;11.85;;;;;;;6.73;50.89;95141.66;5068029;28;20058;-78
2023/12/05 09:12:47;;;;;;;14.65;9.55;;;;;;;6.70;51.18;95145.19;5067514;28;20016;-77
2023/12/05 09:15:12;;;;;;;14.90;9.73;;;;;;;6.74;51.16;95138.50;5065653;28;20459;-77
2023/12/05 09:17:38;;;;;;;19.98;10.13;;;;;;;6.83;50.83;95138.81;5063778;28;20046;-77
2023/12/05 09:20:04;;;;;;;15.27;10.65;;;;;;;7.05;50.21;95128.38;5066257;28;20035;-76
2023/12/05 09:22:29;;;;;;;15.27;10.32;;;;;;;7.27;49.85;95126.16;5065631;28;20056;-78
2023/12/05 09:24:55;;;;;;;15.65;10.05;;;;;;;8.31;47.99;95128.13;5066264;28;20024;-77
2023/12/05 09:27:21;;;;;;;16.98;10.90;;;;;;;8.66;46.55;95124.03;5065396;28;20047;-78
2023/12/05 09:29:46;;;;;;;14.98;10.80;;;;;;;8.78;46.27;95112.44;5065987;28;20020;-78
2023/12/05 09:32:12;;;;;;;18.15;10.73;;;;;;;8.64;46.63;95098.22;5066872;28;20055;-78
2023/12/05 09:34:37;;;;;;;22.42;12.65;;;;;;;9.20;45.95;95104.53;5071936;28;20136;-80
2023/12/05 09:37:03;;;;;;;16.90;9.85;;;;;;;10.03;43.74;95098.75;5071471;28;20044;-77
2023/12/05 09:39:29;;;;;;;14.30;8.45;;;;;;;10.47;42.56;95101.25;5069873;28;20606;-80
2023/12/05 09:41:58;;;;;;;13.60;8.88;;;;;;;10.95;41.66;95099.56;5066409;28;20036;-77
2023/12/05 09:44:25;;;;;;;17.58;9.60;;;;;;;11.50;40.38;95103.13;5064948;28;20381;-77
2023/12/05 09:46:54;;;;;;;14.23;9.10;;;;;;;11.58;40.10;95098.94;5066297;28;20024;-77
2023/12/05 09:49:26;;;;;;;15.65;8.93;;;;;;;11.33;40.33;95097.72;5064393;28;20111;-77
2023/12/05 09:51:51;;;;;;;17.50;9.60;;;;;;;11.49;40.02;95085.06;5065867;28;20107;-78
2023/12/05 09:54:16;;;;;;;13.57;8.27;;;;;;;11.51;40.22;95063.38;5066063;28;20178;-77
2023/12/05 09:56:42;;;;;;;13.68;8.48;;;;;;;11.62;39.75;95063.81;5063710;28;20035;-77
2023/12/05 09:59:09;;;;;;;11.57;8.35;;;;;;;11.91;39.15;95067.25;5065880;28;20116;-77
2023/12/05 10:01:35;;;;;;;12.93;7.38;;;;;;;12.05;38.94;95059.75;5065141;28;20024;-78
2023/12/05 10:04:01;;;;;;;10.77;6.13;;;;;;;11.96;39.01;95052.91;5064555;28;20031;-78
2023/12/05 10:06:26;;;;;;;12.52;6.20;;;;;;;11.85;38.68;95048.97;5064298;28;20502;-78
2023/12/05 10:08:52;;;;;;;10.65;6.65;;;;;;;11.38;39.49;95041.34;5064160;28;20044;-78
2023/12/05 10:11:20;;;;;;;10.40;6.28;;;;;;;11.19;40.12;95036.81;5064258;28;20483;-78
2023/12/05 10:13:46;;;;;;;11.80;6.90;;;;;;;11.02;40.39;95033.38;5063838;28;20427;-77
2023/12/05 10:16:11;;;;;;;11.68;7.50;;;;;;;10.79;40.79;95040.69;5064248;28;20180;-77
2023/12/05 10:18:37;;;;;;;10.65;7.22;;;;;;;10.62;41.41;95023.47;5063497;28;20128;-76
2023/12/05 10:21:03;;;;;;;12.60;7.07;;;;;;;10.48;41.56;95020.34;5065642;28;20107;-79
2023/12/05 10:23:28;;;;;;;11.27;6.90;;;;;;;10.28;42.38;95015.75;5065086;28;20107;-77
2023/12/05 10:25:54;;;;;;;12.90;8.05;;;;;;;10.37;41.84;95009.63;5065520;28;20024;-77
2023/12/05 10:28:19;;;;;;;11.05;7.32;;;;;;;10.64;41.56;95009.28;5065301;28;20738;-77
2023/12/05 10:30:45;;;;;;;13.48;7.68;;;;;;;10.83;41.48;95004.81;5065275;28;20025;-77
2023/12/05 10:33:16;;;;;;;14.48;8.10;;;;;;;11.29;40.80;94999.94;5065144;28;20479;-78
2023/12/05 10:35:42;;;;;;;10.80;7.03;;;;;;;11.86;39.93;94984.41;5046765;28;20403;-77
2023/12/05 10:38:08;;;;;;;13.35;7.28;;;;;;;11.88;39.28;94985.50;5063990;28;20076;-77
2023/12/05 10:40:56;;;;;;;11.85;8.02;;;;;;;11.93;39.19;94973.16;5064667;28;20025;-78
2023/12/05 10:43:24;;;;;;;12.13;7.25;;;;;;;12.16;39.08;94972.75;5065741;28;20020;-77
2023/12/05 10:45:50;;;;;;;11.73;7.72;;;;;;;12.20;39.35;94975.38;5063516;28;20082;-78
2023/12/05 10:48:17;;;;;;;10.13;6.65;;;;;;;11.92;39.18;94964.09;5065056;28;20029;-78
2023/12/05 10:50:44;;;;;;;9.98;7.68;;;;;;;11.76;39.60;94949.72;5063918;28;20020;-77
2023/12/05 10:53:09;;;;;;;10.85;6.70;;;;;;;11.74;39.47;94952.88;5066273;28;20569;-77
2023/12/05 10:55:35;;;;;;;10.65;6.82;;;;;;;11.69;39.92;94945.94;5068617;28;20147;-76
2023/12/05 10:58:01;;;;;;;12.45;6.78;;;;;;;12.02;39.42;94939.41;5068753;28;20199;-79
2023/12/05 11:00:28;;;;;;;11.65;6.63;;;;;;;11.79;39.93;94946.03;5067758;28;20021;-78
2023/12/05 11:02:55;;;;;;;16.30;7.20;;;;;;;12.05;39.65;94946.78;5068178;28;20491;-78
2023/12/05 11:05:20;;;;;;;12.25;6.53;;;;;;;11.97;39.69;94957.25;5068703;28;20017;-77
2023/12/05 11:07:46;;;;;;;10.18;6.65;;;;;;;12.38;39.19;94945.19;5067247;28;20567;-77
2023/12/05 11:10:11;;;;;;;10.48;6.30;;;;;;;12.81;38.57;94945.66;5066736;28;20086;-78
2023/12/05 11:12:37;;;;;;;8.60;6.20;;;;;;;12.16;39.75;94930.66;5068720;28;20225;-78
2023/12/05 11:15:03;;;;;;;8.10;5.18;;;;;;;12.20;40.01;94931.28;5066763;28;20048;-78
2023/12/05 11:17:36;;;;;;;12.75;5.57;;;;;;;12.46;39.87;94920.91;5067591;28;20032;-78
2023/12/05 11:20:23;;;;;;;11.13;5.80;;;;;;;13.51;37.88;94924.81;5067088;28;20020;-78
2023/12/05 11:23:10;;;;;;;10.93;6.07;;;;;;;14.11;36.76;94929.84;5067953;28;20108;-78
2023/12/05 11:25:54;;;;;;;8.88;5.53;;;;;;;14.18;36.72;94926.00;5068173;28;20115;-78
2023/12/05 11:28:38;;;;;;;;;;;;;;;13.88;37.10;94916.59;5068550;28;20029;-78
2023/12/05 11:31:18;;;;;;;8.85;6.15;;;;;;;13.14;38.49;94912.84;5068485;28;19916;-78